aviador You're here:

KBVO Decoded Metar

BARTLESVILLE in OK, USA
Report Time2017-11-20 12:53:00
UTC Time2017-11-20 13:40:48
Flight Rules vfr VFR
Wind190° at 06 kt
W.Decomp.*RWY 17: 5.8 kt HW 1.3 kt RCW
W.Rank190° ranks 3
Current wind is below 190° avg. (7.5)
Visibility9999 m
Phenomena:N/A
Clouds:N/A
Expected CloudBase > 2,400 ft AGL from Temp-Dew spread
CeilingNone
Temp04°C (ISA -10)
Dew Point-2°C (65% RH)
AAT-0.4°C
QNH1019 hPa
Density Alt-604 ft
Elevation689 ft
Report Wrong Elevation
Raw Report
KBVO 201253Z AUTO 19006KT 10SM CLR 04/M02 A3009 RMK AO2 SLP188
T00441017=

Extra information for KBVO:More info

Metar Taf Metar & Taf Last 4 Metars F.Rules Stats Wind Profile Meteogram Temp Stats Airport Information Weather charts Add Link Nearby VenuesMetar ALERT Operation Metar Decoded Social comments

AIRNAV info for KBVO